sensor_id;sensor_type;location;lat;lon;timestamp;temperature;humidity
46091;DHT22;31826;53.572;10.170;2023-04-03T00:00:13;0.90;99.90
46091;DHT22;31826;53.572;10.170;2023-04-03T00:02:39;0.90;99.90
46091;DHT22;31826;53.572;10.170;2023-04-03T00:05:06;0.90;99.90
46091;DHT22;31826;53.572;10.170;2023-04-03T00:07:32;0.90;99.90
46091;DHT22;31826;53.572;10.170;2023-04-03T00:09:58;0.80;99.90
46091;DHT22;31826;53.572;10.170;2023-04-03T00:12:24;0.90;99.90
46091;DHT22;31826;53.572;10.170;2023-04-03T00:14:50;0.90;99.90
46091;DHT22;31826;53.572;10.170;2023-04-03T00:17:15;0.80;99.90
46091;DHT22;31826;53.572;10.170;2023-04-03T00:19:41;0.70;99.90
46091;DHT22;31826;53.572;10.170;2023-04-03T00:22:06;0.70;99.90
46091;DHT22;31826;53.572;10.170;2023-04-03T00:24:32;0.70;99.90
46091;DHT22;31826;53.572;10.170;2023-04-03T00:26:58;0.70;99.90
46091;DHT22;31826;53.572;10.170;2023-04-03T00:29:24;0.70;99.90
46091;DHT22;31826;53.572;10.170;2023-04-03T00:31:49;0.70;99.90
46091;DHT22;31826;53.572;10.170;2023-04-03T00:34:15;0.60;99.90
46091;DHT22;31826;53.572;10.170;2023-04-03T00:36:41;0.60;99.90
46091;DHT22;31826;53.572;10.170;2023-04-03T00:39:07;0.70;99.90
46091;DHT22;31826;53.572;10.170;2023-04-03T00:41:32;0.60;99.90
46091;DHT22;31826;53.572;10.170;2023-04-03T00:43:58;0.60;99.90
46091;DHT22;31826;53.572;10.170;2023-04-03T00:46:24;0.60;99.90
46091;DHT22;31826;53.572;10.170;2023-04-03T00:48:50;0.60;99.90
46091;DHT22;31826;53.572;10.170;2023-04-03T00:51:24;0.60;99.90
46091;DHT22;31826;53.572;10.170;2023-04-03T00:54:01;0.60;99.90
46091;DHT22;31826;53.572;10.170;2023-04-03T00:56:29;0.60;99.90
46091;DHT22;31826;53.572;10.170;2023-04-03T00:59:10;0.60;99.90
46091;DHT22;31826;53.572;10.170;2023-04-03T01:01:37;0.60;99.90
46091;DHT22;31826;53.572;10.170;2023-04-03T01:04:04;0.60;99.90
46091;DHT22;31826;53.572;10.170;2023-04-03T01:06:34;0.60;99.90
46091;DHT22;31826;53.572;10.170;2023-04-03T01:09:00;0.70;99.90
46091;DHT22;31826;53.572;10.170;2023-04-03T01:11:26;0.60;99.90
46091;DHT22;31826;53.572;10.170;2023-04-03T01:13:52;0.60;99.90
46091;DHT22;31826;53.572;10.170;2023-04-03T01:16:19;0.60;99.90
46091;DHT22;31826;53.572;10.170;2023-04-03T01:18:45;0.60;99.90
46091;DHT22;31826;53.572;10.170;2023-04-03T01:26:54;0.70;99.90
46091;DHT22;31826;53.572;10.170;2023-04-03T01:29:20;0.60;99.90
46091;DHT22;31826;53.572;10.170;2023-04-03T01:31:53;0.60;99.90
46091;DHT22;31826;53.572;10.170;2023-04-03T01:34:20;0.60;99.90
46091;DHT22;31826;53.572;10.170;2023-04-03T01:36:46;0.60;99.90
46091;DHT22;31826;53.572;10.170;2023-04-03T01:39:12;0.50;99.90
46091;DHT22;31826;53.572;10.170;2023-04-03T01:41:37;0.50;99.90
46091;DHT22;31826;53.572;10.170;2023-04-03T01:44:03;0.50;99.90
46091;DHT22;31826;53.572;10.170;2023-04-03T01:46:29;0.50;99.90
46091;DHT22;31826;53.572;10.170;2023-04-03T01:48:55;0.60;99.90
46091;DHT22;31826;53.572;10.170;2023-04-03T01:51:21;0.60;99.90
46091;DHT22;31826;53.572;10.170;2023-04-03T01:53:47;0.60;99.90
46091;DHT22;31826;53.572;10.170;2023-04-03T01:56:13;0.50;99.90
46091;DHT22;31826;53.572;10.170;2023-04-03T01:58:38;0.40;99.90
46091;DHT22;31826;53.572;10.170;2023-04-03T02:01:05;0.40;99.90
46091;DHT22;31826;53.572;10.170;2023-04-03T02:03:31;0.50;99.90
46091;DHT22;31826;53.572;10.170;2023-04-03T02:05:57;0.50;99.90
46091;DHT22;31826;53.572;10.170;2023-04-03T02:08:22;0.50;99.90
46091;DHT22;31826;53.572;10.170;2023-04-03T02:10:49;0.50;99.90
46091;DHT22;31826;53.572;10.170;2023-04-03T02:13:16;0.40;99.90
46091;DHT22;31826;53.572;10.170;2023-04-03T02:15:41;0.40;99.90
46091;DHT22;31826;53.572;10.170;2023-04-03T02:18:08;0.40;99.90
46091;DHT22;31826;53.572;10.170;2023-04-03T02:20:33;0.40;99.90
46091;DHT22;31826;53.572;10.170;2023-04-03T02:23:00;0.40;99.90
46091;DHT22;31826;53.572;10.170;2023-04-03T02:25:26;0.30;99.90
46091;DHT22;31826;53.572;10.170;2023-04-03T02:27:52;0.40;99.90
46091;DHT22;31826;53.572;10.170;2023-04-03T02:30:17;0.30;99.90
46091;DHT22;31826;53.572;10.170;2023-04-03T02:32:43;0.30;99.90
46091;DHT22;31826;53.572;10.170;2023-04-03T02:35:10;0.30;99.90
46091;DHT22;31826;53.572;10.170;2023-04-03T02:37:36;0.30;99.90
46091;DHT22;31826;53.572;10.170;2023-04-03T02:40:03;0.20;99.90
46091;DHT22;31826;53.572;10.170;2023-04-03T02:42:29;0.20;99.90
46091;DHT22;31826;53.572;10.170;2023-04-03T02:44:55;0.10;99.90
46091;DHT22;31826;53.572;10.170;2023-04-03T02:47:21;0.10;99.90
46091;DHT22;31826;53.572;10.170;2023-04-03T02:49:47;0.10;99.90
46091;DHT22;31826;53.572;10.170;2023-04-03T02:52:13;0.10;99.90
46091;DHT22;31826;53.572;10.170;2023-04-03T02:54:39;0.10;99.90
46091;DHT22;31826;53.572;10.170;2023-04-03T02:57:06;0.20;99.90
46091;DHT22;31826;53.572;10.170;2023-04-03T02:59:35;0.10;99.90
46091;DHT22;31826;53.572;10.170;2023-04-03T03:02:01;0.00;99.90
46091;DHT22;31826;53.572;10.170;2023-04-03T03:04:26;0.00;99.90
46091;DHT22;31826;53.572;10.170;2023-04-03T03:06:52;0.00;99.90
46091;DHT22;31826;53.572;10.170;2023-04-03T03:09:18;0.00;99.90
46091;DHT22;31826;53.572;10.170;2023-04-03T03:11:44;0.00;99.90
46091;DHT22;31826;53.572;10.170;2023-04-03T03:14:09;0.00;99.90
46091;DHT22;31826;53.572;10.170;2023-04-03T03:16:35;0.00;99.90
46091;DHT22;31826;53.572;10.170;2023-04-03T03:19:01;0.00;99.90
46091;DHT22;31826;53.572;10.170;2023-04-03T03:21:27;-0.10;99.90
46091;DHT22;31826;53.572;10.170;2023-04-03T03:23:53;-0.10;99.90
46091;DHT22;31826;53.572;10.170;2023-04-03T03:26:18;-0.10;99.90
46091;DHT22;31826;53.572;10.170;2023-04-03T03:28:44;-0.20;99.90
46091;DHT22;31826;53.572;10.170;2023-04-03T03:31:10;-0.10;99.90
46091;DHT22;31826;53.572;10.170;2023-04-03T03:33:37;-0.20;99.90
46091;DHT22;31826;53.572;10.170;2023-04-03T03:36:03;-0.20;99.90
46091;DHT22;31826;53.572;10.170;2023-04-03T03:38:29;-0.20;99.90
46091;DHT22;31826;53.572;10.170;2023-04-03T03:40:55;-0.10;99.90
46091;DHT22;31826;53.572;10.170;2023-04-03T03:43:21;0.00;99.90
46091;DHT22;31826;53.572;10.170;2023-04-03T03:45:51;-0.10;99.90
46091;DHT22;31826;53.572;10.170;2023-04-03T03:48:17;-0.20;99.90
46091;DHT22;31826;53.572;10.170;2023-04-03T03:50:43;-0.10;99.90
46091;DHT22;31826;53.572;10.170;2023-04-03T03:53:09;-0.20;99.90
46091;DHT22;31826;53.572;10.170;2023-04-03T03:55:35;-0.20;99.90
46091;DHT22;31826;53.572;10.170;2023-04-03T03:58:00;-0.20;99.90
46091;DHT22;31826;53.572;10.170;2023-04-03T04:00:27;-0.30;99.90
46091;DHT22;31826;53.572;10.170;2023-04-03T04:02:53;-0.20;99.90
46091;DHT22;31826;53.572;10.170;2023-04-03T04:05:19;-0.30;99.90
46091;DHT22;31826;53.572;10.170;2023-04-03T04:07:45;-0.30;99.90
46091;DHT22;31826;53.572;10.170;2023-04-03T04:10:10;-0.30;99.90
46091;DHT22;31826;53.572;10.170;2023-04-03T04:12:36;-0.30;99.90
46091;DHT22;31826;53.572;10.170;2023-04-03T04:15:02;-0.30;99.90
46091;DHT22;31826;53.572;10.170;2023-04-03T04:17:28;-0.30;99.90
46091;DHT22;31826;53.572;10.170;2023-04-03T04:19:54;-0.40;99.90
46091;DHT22;31826;53.572;10.170;2023-04-03T04:22:20;-0.40;99.90
46091;DHT22;31826;53.572;10.170;2023-04-03T04:24:45;-0.30;99.90
46091;DHT22;31826;53.572;10.170;2023-04-03T04:27:11;-0.40;99.90
46091;DHT22;31826;53.572;10.170;2023-04-03T04:29:37;-0.40;99.90
46091;DHT22;31826;53.572;10.170;2023-04-03T04:32:03;-0.50;99.90
46091;DHT22;31826;53.572;10.170;2023-04-03T04:34:30;-0.40;99.90
46091;DHT22;31826;53.572;10.170;2023-04-03T04:36:56;-0.40;99.90
46091;DHT22;31826;53.572;10.170;2023-04-03T04:39:22;-0.50;99.90
46091;DHT22;31826;53.572;10.170;2023-04-03T04:41:47;-0.50;99.90
46091;DHT22;31826;53.572;10.170;2023-04-03T04:44:13;-0.50;99.90
46091;DHT22;31826;53.572;10.170;2023-04-03T04:46:39;-0.50;99.90
46091;DHT22;31826;53.572;10.170;2023-04-03T04:49:04;-0.50;99.90
46091;DHT22;31826;53.572;10.170;2023-04-03T04:51:31;-0.50;99.90
46091;DHT22;31826;53.572;10.170;2023-04-03T04:53:56;-0.40;99.90
46091;DHT22;31826;53.572;10.170;2023-04-03T04:56:22;-0.50;99.90
46091;DHT22;31826;53.572;10.170;2023-04-03T04:58:48;-0.40;99.90
46091;DHT22;31826;53.572;10.170;2023-04-03T05:01:13;-0.30;99.90
46091;DHT22;31826;53.572;10.170;2023-04-03T05:03:39;-0.40;99.90
46091;DHT22;31826;53.572;10.170;2023-04-03T05:06:05;-0.40;99.90
46091;DHT22;31826;53.572;10.170;2023-04-03T05:08:32;-0.40;99.90
46091;DHT22;31826;53.572;10.170;2023-04-03T05:10:58;-0.40;99.90
46091;DHT22;31826;53.572;10.170;2023-04-03T05:13:24;-0.40;99.90
46091;DHT22;31826;53.572;10.170;2023-04-03T05:15:50;-0.40;99.90
46091;DHT22;31826;53.572;10.170;2023-04-03T05:18:16;-0.40;99.90
46091;DHT22;31826;53.572;10.170;2023-04-03T05:20:41;-0.30;99.90
46091;DHT22;31826;53.572;10.170;2023-04-03T05:23:09;-0.30;99.90
46091;DHT22;31826;53.572;10.170;2023-04-03T05:25:38;-0.20;99.90
46091;DHT22;31826;53.572;10.170;2023-04-03T05:28:03;-0.20;99.90
46091;DHT22;31826;53.572;10.170;2023-04-03T05:30:29;-0.20;99.90
46091;DHT22;31826;53.572;10.170;2023-04-03T05:32:55;-0.20;99.90
46091;DHT22;31826;53.572;10.170;2023-04-03T05:35:21;-0.10;99.90
46091;DHT22;31826;53.572;10.170;2023-04-03T05:37:46;-0.10;99.90
46091;DHT22;31826;53.572;10.170;2023-04-03T05:40:12;0.00;99.90
46091;DHT22;31826;53.572;10.170;2023-04-03T05:42:38;0.10;99.90
46091;DHT22;31826;53.572;10.170;2023-04-03T05:45:04;0.20;99.90
46091;DHT22;31826;53.572;10.170;2023-04-03T05:47:30;0.20;99.90
46091;DHT22;31826;53.572;10.170;2023-04-03T05:49:56;0.30;99.90
46091;DHT22;31826;53.572;10.170;2023-04-03T05:52:30;0.40;99.90
46091;DHT22;31826;53.572;10.170;2023-04-03T05:54:57;0.50;99.90
46091;DHT22;31826;53.572;10.170;2023-04-03T05:57:23;0.60;99.90
46091;DHT22;31826;53.572;10.170;2023-04-03T05:59:49;0.70;99.90
46091;DHT22;31826;53.572;10.170;2023-04-03T06:02:19;0.80;99.90
46091;DHT22;31826;53.572;10.170;2023-04-03T06:04:44;0.90;99.90
46091;DHT22;31826;53.572;10.170;2023-04-03T06:07:16;1.00;99.90
46091;DHT22;31826;53.572;10.170;2023-04-03T06:09:43;1.10;99.90
46091;DHT22;31826;53.572;10.170;2023-04-03T06:12:09;1.10;99.90
46091;DHT22;31826;53.572;10.170;2023-04-03T06:14:35;1.20;99.90
46091;DHT22;31826;53.572;10.170;2023-04-03T06:17:01;1.40;99.90
46091;DHT22;31826;53.572;10.170;2023-04-03T06:19:27;1.50;99.90
46091;DHT22;31826;53.572;10.170;2023-04-03T06:21:53;1.60;99.90
46091;DHT22;31826;53.572;10.170;2023-04-03T06:24:19;1.70;99.90
46091;DHT22;31826;53.572;10.170;2023-04-03T06:26:47;1.80;99.90
46091;DHT22;31826;53.572;10.170;2023-04-03T06:29:12;1.90;99.90
46091;DHT22;31826;53.572;10.170;2023-04-03T06:31:38;2.10;99.90
46091;DHT22;31826;53.572;10.170;2023-04-03T06:34:05;2.30;99.90
46091;DHT22;31826;53.572;10.170;2023-04-03T06:36:33;2.40;99.90
46091;DHT22;31826;53.572;10.170;2023-04-03T06:38:58;2.40;99.90
46091;DHT22;31826;53.572;10.170;2023-04-03T06:41:24;2.50;99.90
46091;DHT22;31826;53.572;10.170;2023-04-03T06:43:51;2.70;99.90
46091;DHT22;31826;53.572;10.170;2023-04-03T06:46:20;2.80;99.90
46091;DHT22;31826;53.572;10.170;2023-04-03T06:48:47;2.90;99.90
46091;DHT22;31826;53.572;10.170;2023-04-03T06:51:26;3.00;99.90
46091;DHT22;31826;53.572;10.170;2023-04-03T06:53:53;3.20;99.90
46091;DHT22;31826;53.572;10.170;2023-04-03T06:56:19;3.20;99.90
46091;DHT22;31826;53.572;10.170;2023-04-03T06:58:46;3.30;99.90
46091;DHT22;31826;53.572;10.170;2023-04-03T07:01:14;3.50;99.90
46091;DHT22;31826;53.572;10.170;2023-04-03T07:03:40;3.50;99.90
46091;DHT22;31826;53.572;10.170;2023-04-03T07:06:09;3.70;99.90
46091;DHT22;31826;53.572;10.170;2023-04-03T07:08:36;3.80;99.90
46091;DHT22;31826;53.572;10.170;2023-04-03T07:11:01;3.90;99.90
46091;DHT22;31826;53.572;10.170;2023-04-03T07:13:27;4.20;99.90
46091;DHT22;31826;53.572;10.170;2023-04-03T07:15:54;4.30;99.90
46091;DHT22;31826;53.572;10.170;2023-04-03T07:18:20;4.40;99.90
46091;DHT22;31826;53.572;10.170;2023-04-03T07:20:47;4.60;99.90
46091;DHT22;31826;53.572;10.170;2023-04-03T07:23:12;4.70;99.90
46091;DHT22;31826;53.572;10.170;2023-04-03T07:25:49;4.70;99.90
46091;DHT22;31826;53.572;10.170;2023-04-03T07:28:16;4.80;99.90
46091;DHT22;31826;53.572;10.170;2023-04-03T07:30:47;4.90;99.90
46091;DHT22;31826;53.572;10.170;2023-04-03T07:33:14;5.00;99.90
46091;DHT22;31826;53.572;10.170;2023-04-03T07:35:40;5.20;99.90
46091;DHT22;31826;53.572;10.170;2023-04-03T07:38:07;5.20;99.90
46091;DHT22;31826;53.572;10.170;2023-04-03T07:40:33;5.40;99.90
46091;DHT22;31826;53.572;10.170;2023-04-03T07:43:00;5.50;99.90
46091;DHT22;31826;53.572;10.170;2023-04-03T07:45:26;5.40;99.90
46091;DHT22;31826;53.572;10.170;2023-04-03T07:47:52;5.70;99.90
46091;DHT22;31826;53.572;10.170;2023-04-03T07:50:18;5.80;99.90
46091;DHT22;31826;53.572;10.170;2023-04-03T07:52:44;6.00;99.90
46091;DHT22;31826;53.572;10.170;2023-04-03T07:55:11;6.00;99.90
46091;DHT22;31826;53.572;10.170;2023-04-03T07:57:37;6.00;99.90
46091;DHT22;31826;53.572;10.170;2023-04-03T08:00:04;6.10;99.90
46091;DHT22;31826;53.572;10.170;2023-04-03T08:02:30;6.20;99.90
46091;DHT22;31826;53.572;10.170;2023-04-03T08:04:58;6.30;99.90
46091;DHT22;31826;53.572;10.170;2023-04-03T08:07:24;6.50;99.90
46091;DHT22;31826;53.572;10.170;2023-04-03T08:09:49;6.70;99.90
46091;DHT22;31826;53.572;10.170;2023-04-03T08:12:16;6.80;99.90
46091;DHT22;31826;53.572;10.170;2023-04-03T08:14:42;6.70;99.60
46091;DHT22;31826;53.572;10.170;2023-04-03T08:17:08;6.60;98.30
46091;DHT22;31826;53.572;10.170;2023-04-03T08:19:38;6.70;99.80
46091;DHT22;31826;53.572;10.170;2023-04-03T08:22:04;6.90;98.80
46091;DHT22;31826;53.572;10.170;2023-04-03T08:24:31;7.20;99.50
46091;DHT22;31826;53.572;10.170;2023-04-03T08:26:57;7.40;98.40
46091;DHT22;31826;53.572;10.170;2023-04-03T08:29:23;7.60;96.30
46091;DHT22;31826;53.572;10.170;2023-04-03T08:31:50;7.30;96.50
46091;DHT22;31826;53.572;10.170;2023-04-03T08:34:16;7.50;95.60
46091;DHT22;31826;53.572;10.170;2023-04-03T08:36:43;7.80;96.10
46091;DHT22;31826;53.572;10.170;2023-04-03T08:39:08;8.00;96.00
46091;DHT22;31826;53.572;10.170;2023-04-03T08:41:37;8.00;95.10
46091;DHT22;31826;53.572;10.170;2023-04-03T08:50:06;8.40;94.70
46091;DHT22;31826;53.572;10.170;2023-04-03T08:52:36;8.60;92.80
46091;DHT22;31826;53.572;10.170;2023-04-03T08:57:51;9.20;93.80
46091;DHT22;31826;53.572;10.170;2023-04-03T09:00:24;9.60;92.50
46091;DHT22;31826;53.572;10.170;2023-04-03T09:02:52;9.90;92.50
46091;DHT22;31826;53.572;10.170;2023-04-03T09:05:35;10.20;91.60
46091;DHT22;31826;53.572;10.170;2023-04-03T09:08:12;10.30;90.90
46091;DHT22;31826;53.572;10.170;2023-04-03T09:10:40;10.50;89.90
46091;DHT22;31826;53.572;10.170;2023-04-03T09:13:20;10.30;88.50
46091;DHT22;31826;53.572;10.170;2023-04-03T09:15:47;10.00;85.70
46091;DHT22;31826;53.572;10.170;2023-04-03T09:18:38;9.40;85.30
46091;DHT22;31826;53.572;10.170;2023-04-03T09:24:01;8.90;89.90
46091;DHT22;31826;53.572;10.170;2023-04-03T09:26:36;9.60;90.60
46091;DHT22;31826;53.572;10.170;2023-04-03T09:29:08;9.90;87.90
46091;DHT22;31826;53.572;10.170;2023-04-03T09:31:40;10.50;89.80
46091;DHT22;31826;53.572;10.170;2023-04-03T09:34:14;10.90;86.80
46091;DHT22;31826;53.572;10.170;2023-04-03T09:36:46;11.20;82.40
46091;DHT22;31826;53.572;10.170;2023-04-03T09:39:21;10.90;79.60
46091;DHT22;31826;53.572;10.170;2023-04-03T09:42:04;11.00;79.10
46091;DHT22;31826;53.572;10.170;2023-04-03T09:44:33;11.10;82.10
46091;DHT22;31826;53.572;10.170;2023-04-03T09:47:18;11.30;81.30
46091;DHT22;31826;53.572;10.170;2023-04-03T09:49:44;11.30;86.50
46091;DHT22;31826;53.572;10.170;2023-04-03T09:52:25;11.60;83.00
46091;DHT22;31826;53.572;10.170;2023-04-03T09:54:51;11.60;81.50
46091;DHT22;31826;53.572;10.170;2023-04-03T09:57:17;11.80;81.00
46091;DHT22;31826;53.572;10.170;2023-04-03T09:59:57;11.80;81.50
46091;DHT22;31826;53.572;10.170;2023-04-03T10:05:03;10.40;79.70
46091;DHT22;31826;53.572;10.170;2023-04-03T10:07:35;10.70;86.30
46091;DHT22;31826;53.572;10.170;2023-04-03T10:10:22;11.50;85.10
46091;DHT22;31826;53.572;10.170;2023-04-03T10:13:10;11.80;78.60
46091;DHT22;31826;53.572;10.170;2023-04-03T10:15:41;11.90;82.50
46091;DHT22;31826;53.572;10.170;2023-04-03T10:18:25;12.20;81.30
46091;DHT22;31826;53.572;10.170;2023-04-03T10:20:59;12.40;79.80
46091;DHT22;31826;53.572;10.170;2023-04-03T10:23:49;12.50;75.90
46091;DHT22;31826;53.572;10.170;2023-04-03T10:26:19;12.10;75.00
46091;DHT22;31826;53.572;10.170;2023-04-03T10:34:43;12.20;80.40
46091;DHT22;31826;53.572;10.170;2023-04-03T10:42:18;11.10;82.00
46091;DHT22;31826;53.572;10.170;2023-04-03T10:50:27;12.20;79.10
46091;DHT22;31826;53.572;10.170;2023-04-03T10:58:40;11.50;83.50
46091;DHT22;31826;53.572;10.170;2023-04-03T11:01:33;12.20;85.30
46091;DHT22;31826;53.572;10.170;2023-04-03T11:04:00;12.90;83.50
46091;DHT22;31826;53.572;10.170;2023-04-03T11:09:28;13.80;81.90
46091;DHT22;31826;53.572;10.170;2023-04-03T11:12:25;13.90;78.70
46091;DHT22;31826;53.572;10.170;2023-04-03T11:14:55;13.40;76.00
46091;DHT22;31826;53.572;10.170;2023-04-03T11:17:40;12.40;78.60
46091;DHT22;31826;53.572;10.170;2023-04-03T11:20:30;12.60;84.50
46091;DHT22;31826;53.572;10.170;2023-04-03T11:23:08;12.70;80.70
46091;DHT22;31826;53.572;10.170;2023-04-03T11:25:38;12.40;81.30
46091;DHT22;31826;53.572;10.170;2023-04-03T11:28:13;11.90;81.90
46091;DHT22;31826;53.572;10.170;2023-04-03T11:33:32;11.10;83.20
46091;DHT22;31826;53.572;10.170;2023-04-03T11:36:42;10.90;87.10
46091;DHT22;31826;53.572;10.170;2023-04-03T11:39:37;10.60;86.30
46091;DHT22;31826;53.572;10.170;2023-04-03T11:42:39;10.50;85.70
46091;DHT22;31826;53.572;10.170;2023-04-03T11:50:39;10.60;83.70
46091;DHT22;31826;53.572;10.170;2023-04-03T12:19:30;15.40;74.30
46091;DHT22;31826;53.572;10.170;2023-04-03T12:24:27;13.90;74.80
46091;DHT22;31826;53.572;10.170;2023-04-03T12:35:05;13.70;75.30
46091;DHT22;31826;53.572;10.170;2023-04-03T12:38:01;14.30;76.30
46091;DHT22;31826;53.572;10.170;2023-04-03T12:48:31;14.70;68.30
46091;DHT22;31826;53.572;10.170;2023-04-03T12:51:00;14.80;74.10
46091;DHT22;31826;53.572;10.170;2023-04-03T12:53:36;14.30;69.60
46091;DHT22;31826;53.572;10.170;2023-04-03T12:56:26;14.20;70.90
46091;DHT22;31826;53.572;10.170;2023-04-03T12:59:20;13.60;67.70
46091;DHT22;31826;53.572;10.170;2023-04-03T13:02:00;14.30;73.10
46091;DHT22;31826;53.572;10.170;2023-04-03T13:04:31;14.40;74.00
46091;DHT22;31826;53.572;10.170;2023-04-03T13:06:57;14.60;70.80
46091;DHT22;31826;53.572;10.170;2023-04-03T13:09:27;13.90;72.00
46091;DHT22;31826;53.572;10.170;2023-04-03T13:12:12;13.80;72.60
46091;DHT22;31826;53.572;10.170;2023-04-03T13:14:38;13.60;67.10
46091;DHT22;31826;53.572;10.170;2023-04-03T13:17:13;13.80;73.30
46091;DHT22;31826;53.572;10.170;2023-04-03T13:19:40;14.10;69.60
46091;DHT22;31826;53.572;10.170;2023-04-03T13:22:29;13.50;69.50
46091;DHT22;31826;53.572;10.170;2023-04-03T13:25:03;13.70;71.80
46091;DHT22;31826;53.572;10.170;2023-04-03T13:27:31;14.10;72.10
46091;DHT22;31826;53.572;10.170;2023-04-03T13:29:59;14.60;70.30
46091;DHT22;31826;53.572;10.170;2023-04-03T13:32:27;14.40;67.50
46091;DHT22;31826;53.572;10.170;2023-04-03T13:34:53;14.20;71.10
46091;DHT22;31826;53.572;10.170;2023-04-03T13:37:25;14.50;72.00
46091;DHT22;31826;53.572;10.170;2023-04-03T13:40:11;14.40;70.00
46091;DHT22;31826;53.572;10.170;2023-04-03T13:42:39;14.30;69.30
46091;DHT22;31826;53.572;10.170;2023-04-03T13:45:24;14.20;67.40
46091;DHT22;31826;53.572;10.170;2023-04-03T13:48:06;14.00;69.10
46091;DHT22;31826;53.572;10.170;2023-04-03T13:50:33;14.00;71.10
46091;DHT22;31826;53.572;10.170;2023-04-03T13:53:10;14.10;68.70
46091;DHT22;31826;53.572;10.170;2023-04-03T13:55:51;13.80;68.20
46091;DHT22;31826;53.572;10.170;2023-04-03T13:58:26;13.40;69.70
46091;DHT22;31826;53.572;10.170;2023-04-03T14:01:06;13.20;71.50
46091;DHT22;31826;53.572;10.170;2023-04-03T14:03:46;13.50;70.30
46091;DHT22;31826;53.572;10.170;2023-04-03T14:06:15;13.70;66.00
46091;DHT22;31826;53.572;10.170;2023-04-03T14:08:42;13.80;71.70
46091;DHT22;31826;53.572;10.170;2023-04-03T14:11:16;14.20;69.30
46091;DHT22;31826;53.572;10.170;2023-04-03T14:13:43;14.50;67.00
46091;DHT22;31826;53.572;10.170;2023-04-03T14:16:14;14.40;67.60
46091;DHT22;31826;53.572;10.170;2023-04-03T14:18:40;13.60;63.40
46091;DHT22;31826;53.572;10.170;2023-04-03T14:21:06;13.10;67.30
46091;DHT22;31826;53.572;10.170;2023-04-03T14:23:32;13.10;65.50
46091;DHT22;31826;53.572;10.170;2023-04-03T14:25:58;13.10;66.10
46091;DHT22;31826;53.572;10.170;2023-04-03T14:28:25;12.80;68.50
46091;DHT22;31826;53.572;10.170;2023-04-03T14:30:51;13.30;69.30
46091;DHT22;31826;53.572;10.170;2023-04-03T14:33:20;13.50;68.40
46091;DHT22;31826;53.572;10.170;2023-04-03T14:35:47;13.70;68.80
46091;DHT22;31826;53.572;10.170;2023-04-03T14:38:27;13.60;67.10
46091;DHT22;31826;53.572;10.170;2023-04-03T14:40:54;13.10;67.50
46091;DHT22;31826;53.572;10.170;2023-04-03T14:43:20;13.00;68.10
46091;DHT22;31826;53.572;10.170;2023-04-03T14:45:47;13.00;67.50
46091;DHT22;31826;53.572;10.170;2023-04-03T14:48:21;13.00;66.90
46091;DHT22;31826;53.572;10.170;2023-04-03T14:50:51;12.20;68.10
46091;DHT22;31826;53.572;10.170;2023-04-03T14:53:18;11.50;69.00
46091;DHT22;31826;53.572;10.170;2023-04-03T14:55:48;11.40;71.70
46091;DHT22;31826;53.572;10.170;2023-04-03T14:58:19;11.30;72.40
46091;DHT22;31826;53.572;10.170;2023-04-03T15:00:46;11.10;70.70
46091;DHT22;31826;53.572;10.170;2023-04-03T15:03:21;10.90;74.90
46091;DHT22;31826;53.572;10.170;2023-04-03T15:05:48;10.60;76.20
46091;DHT22;31826;53.572;10.170;2023-04-03T15:08:25;10.40;77.50
46091;DHT22;31826;53.572;10.170;2023-04-03T15:10:52;10.20;74.60
46091;DHT22;31826;53.572;10.170;2023-04-03T15:13:19;9.90;77.70
46091;DHT22;31826;53.572;10.170;2023-04-03T15:15:46;9.70;78.20
46091;DHT22;31826;53.572;10.170;2023-04-03T15:18:16;9.30;77.00
46091;DHT22;31826;53.572;10.170;2023-04-03T15:20:43;9.10;78.40
46091;DHT22;31826;53.572;10.170;2023-04-03T15:23:12;9.00;78.00
46091;DHT22;31826;53.572;10.170;2023-04-03T15:25:37;9.10;82.20
46091;DHT22;31826;53.572;10.170;2023-04-03T15:28:05;9.10;79.60
46091;DHT22;31826;53.572;10.170;2023-04-03T15:30:31;9.00;81.20
46091;DHT22;31826;53.572;10.170;2023-04-03T15:32:56;8.90;78.50
46091;DHT22;31826;53.572;10.170;2023-04-03T15:35:22;8.90;82.40
46091;DHT22;31826;53.572;10.170;2023-04-03T15:37:48;9.00;83.90
46091;DHT22;31826;53.572;10.170;2023-04-03T15:40:14;9.00;83.10
46091;DHT22;31826;53.572;10.170;2023-04-03T15:42:40;9.00;83.50
46091;DHT22;31826;53.572;10.170;2023-04-03T15:45:07;8.70;82.90
46091;DHT22;31826;53.572;10.170;2023-04-03T15:47:33;8.70;84.60
46091;DHT22;31826;53.572;10.170;2023-04-03T15:49:59;8.60;84.10
46091;DHT22;31826;53.572;10.170;2023-04-03T15:52:25;8.50;84.30
46091;DHT22;31826;53.572;10.170;2023-04-03T15:54:51;8.50;85.50
46091;DHT22;31826;53.572;10.170;2023-04-03T15:57:17;8.40;85.40
46091;DHT22;31826;53.572;10.170;2023-04-03T15:59:42;8.50;85.90
46091;DHT22;31826;53.572;10.170;2023-04-03T16:02:10;8.40;86.50
46091;DHT22;31826;53.572;10.170;2023-04-03T16:04:38;8.30;84.90
46091;DHT22;31826;53.572;10.170;2023-04-03T16:07:04;8.30;84.90
46091;DHT22;31826;53.572;10.170;2023-04-03T16:09:31;8.30;85.70
46091;DHT22;31826;53.572;10.170;2023-04-03T16:11:58;8.20;85.10
46091;DHT22;31826;53.572;10.170;2023-04-03T16:14:23;8.10;85.80
46091;DHT22;31826;53.572;10.170;2023-04-03T16:16:49;8.10;84.90
46091;DHT22;31826;53.572;10.170;2023-04-03T16:19:15;8.00;85.20
46091;DHT22;31826;53.572;10.170;2023-04-03T16:21:41;7.80;84.70
46091;DHT22;31826;53.572;10.170;2023-04-03T16:24:07;7.90;84.10
46091;DHT22;31826;53.572;10.170;2023-04-03T16:26:33;7.80;84.90
46091;DHT22;31826;53.572;10.170;2023-04-03T16:28:58;7.80;86.00
46091;DHT22;31826;53.572;10.170;2023-04-03T16:31:25;7.70;87.00
46091;DHT22;31826;53.572;10.170;2023-04-03T16:33:51;7.70;86.30
46091;DHT22;31826;53.572;10.170;2023-04-03T16:36:17;7.60;87.80
46091;DHT22;31826;53.572;10.170;2023-04-03T16:38:43;7.50;87.70
46091;DHT22;31826;53.572;10.170;2023-04-03T16:41:09;7.40;88.80
46091;DHT22;31826;53.572;10.170;2023-04-03T16:43:35;7.40;89.90
46091;DHT22;31826;53.572;10.170;2023-04-03T16:46:01;7.30;89.60
46091;DHT22;31826;53.572;10.170;2023-04-03T16:48:28;7.20;89.70
46091;DHT22;31826;53.572;10.170;2023-04-03T16:50:54;7.10;90.10
46091;DHT22;31826;53.572;10.170;2023-04-03T16:53:21;7.10;90.30
46091;DHT22;31826;53.572;10.170;2023-04-03T16:55:47;7.00;90.10
46091;DHT22;31826;53.572;10.170;2023-04-03T16:58:13;7.10;90.10
46091;DHT22;31826;53.572;10.170;2023-04-03T17:00:40;6.90;90.30
46091;DHT22;31826;53.572;10.170;2023-04-03T17:03:06;6.80;90.10
46091;DHT22;31826;53.572;10.170;2023-04-03T17:05:31;6.80;89.00
46091;DHT22;31826;53.572;10.170;2023-04-03T17:07:57;6.60;89.50
46091;DHT22;31826;53.572;10.170;2023-04-03T17:10:24;6.50;90.30
46091;DHT22;31826;53.572;10.170;2023-04-03T17:12:49;6.40;90.20